sensor_id;sensor_type;location;lat;lon;timestamp;P1;durP1;ratioP1;P2;durP2;ratioP2
45684;SDS011;46836;48.388;16.210;2023-08-01T00:00:40;3.57;;;2.90;;
45684;SDS011;46836;48.388;16.210;2023-08-01T00:03:07;4.00;;;3.60;;
45684;SDS011;46836;48.388;16.210;2023-08-01T00:05:35;4.53;;;3.20;;
45684;SDS011;46836;48.388;16.210;2023-08-01T00:08:02;4.67;;;3.07;;
45684;SDS011;46836;48.388;16.210;2023-08-01T00:10:29;4.47;;;2.83;;
45684;SDS011;46836;48.388;16.210;2023-08-01T00:12:56;4.20;;;3.30;;
45684;SDS011;46836;48.388;16.210;2023-08-01T00:15:23;4.30;;;3.20;;
45684;SDS011;46836;48.388;16.210;2023-08-01T00:17:50;4.57;;;3.13;;
45684;SDS011;46836;48.388;16.210;2023-08-01T00:20:18;2.90;;;2.60;;
45684;SDS011;46836;48.388;16.210;2023-08-01T00:22:45;4.13;;;2.90;;
45684;SDS011;46836;48.388;16.210;2023-08-01T00:25:13;3.50;;;3.00;;
45684;SDS011;46836;48.388;16.210;2023-08-01T00:27:40;2.93;;;2.73;;
45684;SDS011;46836;48.388;16.210;2023-08-01T00:30:07;2.90;;;2.53;;
45684;SDS011;46836;48.388;16.210;2023-08-01T00:32:35;7.70;;;3.50;;
45684;SDS011;46836;48.388;16.210;2023-08-01T00:35:04;3.60;;;2.83;;
45684;SDS011;46836;48.388;16.210;2023-08-01T00:37:31;7.63;;;3.67;;
45684;SDS011;46836;48.388;16.210;2023-08-01T00:39:58;4.63;;;3.20;;
45684;SDS011;46836;48.388;16.210;2023-08-01T00:42:25;4.90;;;3.23;;
45684;SDS011;46836;48.388;16.210;2023-08-01T00:44:52;5.80;;;3.43;;
45684;SDS011;46836;48.388;16.210;2023-08-01T00:47:20;5.40;;;3.50;;
45684;SDS011;46836;48.388;16.210;2023-08-01T00:49:48;6.47;;;3.33;;
45684;SDS011;46836;48.388;16.210;2023-08-01T00:52:16;4.07;;;3.20;;
45684;SDS011;46836;48.388;16.210;2023-08-01T00:54:44;4.60;;;4.20;;
45684;SDS011;46836;48.388;16.210;2023-08-01T00:57:11;3.83;;;3.53;;
45684;SDS011;46836;48.388;16.210;2023-08-01T00:59:39;7.17;;;3.63;;
45684;SDS011;46836;48.388;16.210;2023-08-01T01:02:07;5.73;;;3.30;;
45684;SDS011;46836;48.388;16.210;2023-08-01T01:04:34;4.63;;;3.13;;
45684;SDS011;46836;48.388;16.210;2023-08-01T01:07:05;3.20;;;2.90;;
45684;SDS011;46836;48.388;16.210;2023-08-01T01:09:33;4.03;;;2.90;;
45684;SDS011;46836;48.388;16.210;2023-08-01T01:12:00;5.00;;;3.47;;
45684;SDS011;46836;48.388;16.210;2023-08-01T01:14:28;5.83;;;3.23;;
45684;SDS011;46836;48.388;16.210;2023-08-01T01:16:55;5.00;;;3.83;;
45684;SDS011;46836;48.388;16.210;2023-08-01T01:19:22;6.33;;;3.77;;
45684;SDS011;46836;48.388;16.210;2023-08-01T01:21:49;15.77;;;3.90;;
45684;SDS011;46836;48.388;16.210;2023-08-01T01:24:17;4.70;;;3.50;;
45684;SDS011;46836;48.388;16.210;2023-08-01T01:26:45;4.73;;;3.47;;
45684;SDS011;46836;48.388;16.210;2023-08-01T01:29:14;6.87;;;3.77;;
45684;SDS011;46836;48.388;16.210;2023-08-01T01:31:42;4.60;;;4.00;;
45684;SDS011;46836;48.388;16.210;2023-08-01T01:34:10;4.00;;;3.60;;
45684;SDS011;46836;48.388;16.210;2023-08-01T01:36:37;7.13;;;3.83;;
45684;SDS011;46836;48.388;16.210;2023-08-01T01:39:04;6.43;;;3.80;;
45684;SDS011;46836;48.388;16.210;2023-08-01T01:41:31;4.73;;;3.90;;
45684;SDS011;46836;48.388;16.210;2023-08-01T01:43:59;4.97;;;3.33;;
45684;SDS011;46836;48.388;16.210;2023-08-01T01:46:26;3.87;;;3.50;;
45684;SDS011;46836;48.388;16.210;2023-08-01T01:48:56;4.73;;;3.40;;
45684;SDS011;46836;48.388;16.210;2023-08-01T01:51:27;3.97;;;3.27;;
45684;SDS011;46836;48.388;16.210;2023-08-01T01:53:56;5.43;;;3.27;;
45684;SDS011;46836;48.388;16.210;2023-08-01T01:56:23;3.63;;;3.33;;
45684;SDS011;46836;48.388;16.210;2023-08-01T01:58:50;3.60;;;3.10;;
45684;SDS011;46836;48.388;16.210;2023-08-01T02:01:17;4.97;;;3.87;;
45684;SDS011;46836;48.388;16.210;2023-08-01T02:03:44;6.20;;;3.50;;
45684;SDS011;46836;48.388;16.210;2023-08-01T02:06:11;3.90;;;3.60;;
45684;SDS011;46836;48.388;16.210;2023-08-01T02:08:38;6.90;;;3.67;;
45684;SDS011;46836;48.388;16.210;2023-08-01T02:11:05;5.60;;;3.43;;
45684;SDS011;46836;48.388;16.210;2023-08-01T02:13:32;4.00;;;3.60;;
45684;SDS011;46836;48.388;16.210;2023-08-01T02:16:00;4.50;;;3.53;;
45684;SDS011;46836;48.388;16.210;2023-08-01T02:18:28;5.80;;;3.80;;
45684;SDS011;46836;48.388;16.210;2023-08-01T02:20:55;4.30;;;3.40;;
45684;SDS011;46836;48.388;16.210;2023-08-01T02:23:21;4.17;;;3.57;;
45684;SDS011;46836;48.388;16.210;2023-08-01T02:25:49;4.10;;;3.80;;
45684;SDS011;46836;48.388;16.210;2023-08-01T02:28:16;5.23;;;3.40;;
45684;SDS011;46836;48.388;16.210;2023-08-01T02:30:43;4.83;;;3.50;;
45684;SDS011;46836;48.388;16.210;2023-08-01T02:33:10;4.60;;;3.30;;
45684;SDS011;46836;48.388;16.210;2023-08-01T02:35:38;4.97;;;3.40;;
45684;SDS011;46836;48.388;16.210;2023-08-01T02:38:05;3.50;;;3.20;;
45684;SDS011;46836;48.388;16.210;2023-08-01T02:40:32;4.00;;;3.70;;
45684;SDS011;46836;48.388;16.210;2023-08-01T02:42:59;4.77;;;3.80;;
45684;SDS011;46836;48.388;16.210;2023-08-01T02:45:26;4.50;;;3.47;;
45684;SDS011;46836;48.388;16.210;2023-08-01T02:47:53;3.57;;;3.27;;
45684;SDS011;46836;48.388;16.210;2023-08-01T02:50:23;4.60;;;3.97;;
45684;SDS011;46836;48.388;16.210;2023-08-01T02:52:50;8.33;;;3.87;;
45684;SDS011;46836;48.388;16.210;2023-08-01T02:55:17;4.13;;;3.77;;
45684;SDS011;46836;48.388;16.210;2023-08-01T02:57:44;4.37;;;3.30;;
45684;SDS011;46836;48.388;16.210;2023-08-01T03:00:12;4.10;;;3.70;;
45684;SDS011;46836;48.388;16.210;2023-08-01T03:02:39;5.17;;;3.80;;
45684;SDS011;46836;48.388;16.210;2023-08-01T03:05:07;4.03;;;3.53;;
45684;SDS011;46836;48.388;16.210;2023-08-01T03:07:34;4.10;;;3.70;;
45684;SDS011;46836;48.388;16.210;2023-08-01T03:10:03;4.20;;;3.80;;
45684;SDS011;46836;48.388;16.210;2023-08-01T03:12:30;5.73;;;3.83;;
45684;SDS011;46836;48.388;16.210;2023-08-01T03:14:57;6.70;;;4.10;;
45684;SDS011;46836;48.388;16.210;2023-08-01T03:17:24;6.33;;;4.13;;
45684;SDS011;46836;48.388;16.210;2023-08-01T03:19:51;4.40;;;3.63;;
45684;SDS011;46836;48.388;16.210;2023-08-01T03:22:19;6.00;;;3.97;;
45684;SDS011;46836;48.388;16.210;2023-08-01T03:24:46;5.60;;;3.93;;
45684;SDS011;46836;48.388;16.210;2023-08-01T03:27:13;8.20;;;4.20;;
45684;SDS011;46836;48.388;16.210;2023-08-01T03:29:40;4.77;;;3.83;;
45684;SDS011;46836;48.388;16.210;2023-08-01T03:32:07;5.00;;;4.50;;
45684;SDS011;46836;48.388;16.210;2023-08-01T03:34:34;5.40;;;4.10;;
45684;SDS011;46836;48.388;16.210;2023-08-01T03:37:02;4.90;;;4.40;;
45684;SDS011;46836;48.388;16.210;2023-08-01T03:39:30;4.60;;;4.20;;
45684;SDS011;46836;48.388;16.210;2023-08-01T03:41:57;5.23;;;4.43;;
45684;SDS011;46836;48.388;16.210;2023-08-01T03:44:24;4.70;;;4.30;;
45684;SDS011;46836;48.388;16.210;2023-08-01T03:46:51;6.03;;;3.90;;
45684;SDS011;46836;48.388;16.210;2023-08-01T03:49:18;4.40;;;3.83;;
45684;SDS011;46836;48.388;16.210;2023-08-01T03:51:45;4.90;;;4.00;;
45684;SDS011;46836;48.388;16.210;2023-08-01T03:54:12;4.43;;;4.03;;
45684;SDS011;46836;48.388;16.210;2023-08-01T03:56:40;5.67;;;4.50;;
45684;SDS011;46836;48.388;16.210;2023-08-01T03:59:13;5.20;;;4.80;;
45684;SDS011;46836;48.388;16.210;2023-08-01T04:01:42;4.83;;;4.27;;
45684;SDS011;46836;48.388;16.210;2023-08-01T04:04:09;7.10;;;4.63;;
45684;SDS011;46836;48.388;16.210;2023-08-01T04:06:36;4.80;;;4.30;;
45684;SDS011;46836;48.388;16.210;2023-08-01T04:09:05;4.70;;;4.30;;
45684;SDS011;46836;48.388;16.210;2023-08-01T04:11:33;5.50;;;3.63;;
45684;SDS011;46836;48.388;16.210;2023-08-01T04:14:00;6.77;;;4.03;;
45684;SDS011;46836;48.388;16.210;2023-08-01T04:16:27;5.87;;;4.30;;
45684;SDS011;46836;48.388;16.210;2023-08-01T04:18:54;3.93;;;3.63;;
45684;SDS011;46836;48.388;16.210;2023-08-01T04:21:22;5.13;;;3.80;;
45684;SDS011;46836;48.388;16.210;2023-08-01T04:23:49;6.73;;;4.00;;
45684;SDS011;46836;48.388;16.210;2023-08-01T04:26:16;6.70;;;4.73;;
45684;SDS011;46836;48.388;16.210;2023-08-01T04:28:43;4.80;;;4.30;;
45684;SDS011;46836;48.388;16.210;2023-08-01T04:31:12;4.90;;;4.20;;
45684;SDS011;46836;48.388;16.210;2023-08-01T04:33:39;5.63;;;4.30;;
45684;SDS011;46836;48.388;16.210;2023-08-01T04:36:06;5.03;;;4.07;;
45684;SDS011;46836;48.388;16.210;2023-08-01T04:38:33;5.50;;;4.13;;
45684;SDS011;46836;48.388;16.210;2023-08-01T04:41:00;6.40;;;4.40;;
45684;SDS011;46836;48.388;16.210;2023-08-01T04:43:29;5.80;;;4.20;;
45684;SDS011;46836;48.388;16.210;2023-08-01T04:45:56;5.33;;;3.47;;
45684;SDS011;46836;48.388;16.210;2023-08-01T04:48:23;8.33;;;3.90;;
45684;SDS011;46836;48.388;16.210;2023-08-01T04:50:50;5.50;;;3.80;;
45684;SDS011;46836;48.388;16.210;2023-08-01T04:53:17;4.73;;;4.23;;
45684;SDS011;46836;48.388;16.210;2023-08-01T04:55:44;7.13;;;5.00;;
45684;SDS011;46836;48.388;16.210;2023-08-01T04:58:11;7.03;;;4.47;;
45684;SDS011;46836;48.388;16.210;2023-08-01T05:00:40;7.10;;;4.27;;
45684;SDS011;46836;48.388;16.210;2023-08-01T05:03:08;7.93;;;4.47;;
45684;SDS011;46836;48.388;16.210;2023-08-01T05:05:35;5.60;;;5.00;;
45684;SDS011;46836;48.388;16.210;2023-08-01T05:08:02;5.23;;;4.40;;
45684;SDS011;46836;48.388;16.210;2023-08-01T05:10:30;5.50;;;5.00;;
45684;SDS011;46836;48.388;16.210;2023-08-01T05:12:57;5.90;;;4.37;;
45684;SDS011;46836;48.388;16.210;2023-08-01T05:15:24;5.80;;;4.50;;
45684;SDS011;46836;48.388;16.210;2023-08-01T05:17:52;10.37;;;4.27;;
45684;SDS011;46836;48.388;16.210;2023-08-01T05:20:19;4.43;;;4.03;;
45684;SDS011;46836;48.388;16.210;2023-08-01T05:22:46;4.70;;;4.30;;
45684;SDS011;46836;48.388;16.210;2023-08-01T05:25:13;7.57;;;4.30;;
45684;SDS011;46836;48.388;16.210;2023-08-01T05:27:40;4.00;;;3.70;;
45684;SDS011;46836;48.388;16.210;2023-08-01T05:30:07;11.33;;;4.00;;
45684;SDS011;46836;48.388;16.210;2023-08-01T05:32:35;12.73;;;4.30;;
45684;SDS011;46836;48.388;16.210;2023-08-01T05:35:03;7.53;;;4.30;;
45684;SDS011;46836;48.388;16.210;2023-08-01T05:37:31;8.73;;;4.27;;
45684;SDS011;46836;48.388;16.210;2023-08-01T05:39:58;9.67;;;4.30;;
45684;SDS011;46836;48.388;16.210;2023-08-01T05:42:25;5.83;;;4.40;;
45684;SDS011;46836;48.388;16.210;2023-08-01T05:44:52;5.17;;;4.00;;
45684;SDS011;46836;48.388;16.210;2023-08-01T05:47:19;7.03;;;4.70;;
45684;SDS011;46836;48.388;16.210;2023-08-01T05:49:46;5.10;;;4.17;;
45684;SDS011;46836;48.388;16.210;2023-08-01T05:52:14;5.27;;;4.77;;
45684;SDS011;46836;48.388;16.210;2023-08-01T05:54:41;4.50;;;3.63;;
45684;SDS011;46836;48.388;16.210;2023-08-01T05:57:08;4.43;;;4.03;;
45684;SDS011;46836;48.388;16.210;2023-08-01T05:59:35;4.93;;;4.53;;
45684;SDS011;46836;48.388;16.210;2023-08-01T06:02:03;5.73;;;4.00;;
45684;SDS011;46836;48.388;16.210;2023-08-01T06:04:30;5.47;;;4.20;;
45684;SDS011;46836;48.388;16.210;2023-08-01T06:06:57;6.47;;;4.60;;
45684;SDS011;46836;48.388;16.210;2023-08-01T06:09:25;4.70;;;4.23;;
45684;SDS011;46836;48.388;16.210;2023-08-01T06:11:52;5.87;;;4.07;;
45684;SDS011;46836;48.388;16.210;2023-08-01T06:14:19;5.23;;;4.60;;
45684;SDS011;46836;48.388;16.210;2023-08-01T06:16:46;5.37;;;4.60;;
45684;SDS011;46836;48.388;16.210;2023-08-01T06:19:13;9.43;;;4.43;;
45684;SDS011;46836;48.388;16.210;2023-08-01T06:21:40;5.67;;;4.43;;
45684;SDS011;46836;48.388;16.210;2023-08-01T06:24:07;5.60;;;5.00;;
45684;SDS011;46836;48.388;16.210;2023-08-01T06:26:35;4.77;;;4.37;;
45684;SDS011;46836;48.388;16.210;2023-08-01T06:29:02;8.50;;;4.83;;
45684;SDS011;46836;48.388;16.210;2023-08-01T06:31:29;6.53;;;4.97;;
45684;SDS011;46836;48.388;16.210;2023-08-01T06:33:56;8.27;;;4.80;;
45684;SDS011;46836;48.388;16.210;2023-08-01T06:36:23;7.63;;;4.93;;
45684;SDS011;46836;48.388;16.210;2023-08-01T06:38:50;8.67;;;4.50;;
45684;SDS011;46836;48.388;16.210;2023-08-01T06:41:17;7.23;;;5.17;;
45684;SDS011;46836;48.388;16.210;2023-08-01T06:43:44;5.47;;;5.00;;
45684;SDS011;46836;48.388;16.210;2023-08-01T06:46:11;6.23;;;5.27;;
45684;SDS011;46836;48.388;16.210;2023-08-01T06:48:39;7.73;;;6.17;;
45684;SDS011;46836;48.388;16.210;2023-08-01T06:51:06;8.63;;;6.67;;
45684;SDS011;46836;48.388;16.210;2023-08-01T06:53:33;8.67;;;6.77;;
45684;SDS011;46836;48.388;16.210;2023-08-01T06:56:00;6.97;;;6.27;;
45684;SDS011;46836;48.388;16.210;2023-08-01T06:58:27;9.03;;;6.30;;
45684;SDS011;46836;48.388;16.210;2023-08-01T07:00:54;8.63;;;6.03;;
45684;SDS011;46836;48.388;16.210;2023-08-01T07:03:21;8.30;;;5.90;;
45684;SDS011;46836;48.388;16.210;2023-08-01T07:05:48;8.33;;;6.33;;
45684;SDS011;46836;48.388;16.210;2023-08-01T07:08:16;11.20;;;6.43;;
45684;SDS011;46836;48.388;16.210;2023-08-01T07:10:43;8.23;;;6.87;;
45684;SDS011;46836;48.388;16.210;2023-08-01T07:13:10;7.20;;;5.10;;
45684;SDS011;46836;48.388;16.210;2023-08-01T07:15:37;8.73;;;5.60;;
45684;SDS011;46836;48.388;16.210;2023-08-01T07:18:04;8.90;;;5.90;;
45684;SDS011;46836;48.388;16.210;2023-08-01T07:20:31;8.47;;;5.20;;
45684;SDS011;46836;48.388;16.210;2023-08-01T07:22:58;10.00;;;5.10;;
45684;SDS011;46836;48.388;16.210;2023-08-01T07:25:25;7.27;;;5.40;;
45684;SDS011;46836;48.388;16.210;2023-08-01T07:27:52;8.03;;;5.80;;
45684;SDS011;46836;48.388;16.210;2023-08-01T07:30:20;7.70;;;5.60;;
45684;SDS011;46836;48.388;16.210;2023-08-01T07:32:47;7.10;;;5.80;;
45684;SDS011;46836;48.388;16.210;2023-08-01T07:35:14;8.63;;;5.90;;
45684;SDS011;46836;48.388;16.210;2023-08-01T07:37:41;6.33;;;5.77;;
45684;SDS011;46836;48.388;16.210;2023-08-01T07:40:09;6.80;;;6.00;;
45684;SDS011;46836;48.388;16.210;2023-08-01T07:42:36;5.90;;;5.30;;
45684;SDS011;46836;48.388;16.210;2023-08-01T07:45:03;7.03;;;5.90;;
45684;SDS011;46836;48.388;16.210;2023-08-01T07:47:31;6.63;;;5.90;;
45684;SDS011;46836;48.388;16.210;2023-08-01T07:49:58;10.50;;;5.53;;
45684;SDS011;46836;48.388;16.210;2023-08-01T07:52:25;9.00;;;7.07;;
45684;SDS011;46836;48.388;16.210;2023-08-01T07:54:53;8.10;;;5.83;;
45684;SDS011;46836;48.388;16.210;2023-08-01T07:57:22;8.80;;;6.00;;
45684;SDS011;46836;48.388;16.210;2023-08-01T07:59:49;5.47;;;4.97;;
45684;SDS011;46836;48.388;16.210;2023-08-01T08:02:16;7.60;;;5.47;;
45684;SDS011;46836;48.388;16.210;2023-08-01T08:04:43;7.37;;;6.13;;
45684;SDS011;46836;48.388;16.210;2023-08-01T08:07:11;7.70;;;5.67;;
45684;SDS011;46836;48.388;16.210;2023-08-01T08:09:38;6.30;;;5.60;;
45684;SDS011;46836;48.388;16.210;2023-08-01T08:12:05;7.60;;;6.03;;
45684;SDS011;46836;48.388;16.210;2023-08-01T08:14:32;8.27;;;6.60;;
45684;SDS011;46836;48.388;16.210;2023-08-01T08:17:00;8.53;;;5.97;;
45684;SDS011;46836;48.388;16.210;2023-08-01T08:19:27;6.33;;;5.83;;
45684;SDS011;46836;48.388;16.210;2023-08-01T08:21:54;8.20;;;7.00;;
45684;SDS011;46836;48.388;16.210;2023-08-01T08:24:21;8.60;;;6.27;;
45684;SDS011;46836;48.388;16.210;2023-08-01T08:26:49;11.43;;;6.60;;
45684;SDS011;46836;48.388;16.210;2023-08-01T08:29:16;6.67;;;5.97;;
45684;SDS011;46836;48.388;16.210;2023-08-01T08:31:43;7.93;;;6.07;;
45684;SDS011;46836;48.388;16.210;2023-08-01T08:34:10;6.10;;;5.60;;
45684;SDS011;46836;48.388;16.210;2023-08-01T08:36:37;8.80;;;5.70;;
45684;SDS011;46836;48.388;16.210;2023-08-01T08:39:06;8.50;;;5.87;;
45684;SDS011;46836;48.388;16.210;2023-08-01T08:41:35;9.70;;;5.20;;
45684;SDS011;46836;48.388;16.210;2023-08-01T08:44:08;8.50;;;6.10;;
45684;SDS011;46836;48.388;16.210;2023-08-01T08:46:40;6.13;;;5.53;;
45684;SDS011;46836;48.388;16.210;2023-08-01T08:49:10;7.63;;;5.87;;
45684;SDS011;46836;48.388;16.210;2023-08-01T08:51:38;8.47;;;6.03;;
45684;SDS011;46836;48.388;16.210;2023-08-01T08:54:05;7.07;;;5.00;;
45684;SDS011;46836;48.388;16.210;2023-08-01T08:56:33;12.13;;;5.50;;
45684;SDS011;46836;48.388;16.210;2023-08-01T08:59:01;7.60;;;6.27;;
45684;SDS011;46836;48.388;16.210;2023-08-01T09:01:29;7.43;;;5.53;;
45684;SDS011;46836;48.388;16.210;2023-08-01T09:03:58;6.73;;;5.73;;
45684;SDS011;46836;48.388;16.210;2023-08-01T09:06:28;5.30;;;4.80;;
45684;SDS011;46836;48.388;16.210;2023-08-01T09:09:02;5.73;;;5.23;;
45684;SDS011;46836;48.388;16.210;2023-08-01T09:11:50;6.47;;;4.90;;
45684;SDS011;46836;48.388;16.210;2023-08-01T09:14:18;5.00;;;4.53;;
45684;SDS011;46836;48.388;16.210;2023-08-01T09:16:46;5.83;;;5.33;;
45684;SDS011;46836;48.388;16.210;2023-08-01T09:19:21;7.03;;;4.90;;
45684;SDS011;46836;48.388;16.210;2023-08-01T09:21:50;6.17;;;5.13;;
45684;SDS011;46836;48.388;16.210;2023-08-01T09:24:18;8.00;;;5.13;;
45684;SDS011;46836;48.388;16.210;2023-08-01T09:26:47;5.60;;;4.73;;
45684;SDS011;46836;48.388;16.210;2023-08-01T09:29:19;5.10;;;4.70;;
45684;SDS011;46836;48.388;16.210;2023-08-01T09:31:47;5.60;;;5.10;;
45684;SDS011;46836;48.388;16.210;2023-08-01T09:34:19;7.37;;;5.60;;
45684;SDS011;46836;48.388;16.210;2023-08-01T09:36:59;5.70;;;5.03;;
45684;SDS011;46836;48.388;16.210;2023-08-01T09:39:27;6.97;;;4.17;;
45684;SDS011;46836;48.388;16.210;2023-08-01T09:42:01;4.60;;;4.20;;
45684;SDS011;46836;48.388;16.210;2023-08-01T09:44:29;8.83;;;5.30;;
45684;SDS011;46836;48.388;16.210;2023-08-01T09:47:00;7.03;;;4.40;;
45684;SDS011;46836;48.388;16.210;2023-08-01T09:49:32;5.17;;;4.67;;
45684;SDS011;46836;48.388;16.210;2023-08-01T09:52:01;5.07;;;4.63;;
45684;SDS011;46836;48.388;16.210;2023-08-01T09:54:28;13.07;;;5.73;;
45684;SDS011;46836;48.388;16.210;2023-08-01T09:56:55;6.13;;;5.07;;
45684;SDS011;46836;48.388;16.210;2023-08-01T09:59:23;6.17;;;5.27;;
45684;SDS011;46836;48.388;16.210;2023-08-01T10:01:55;6.10;;;4.83;;
45684;SDS011;46836;48.388;16.210;2023-08-01T10:04:25;4.87;;;4.37;;
45684;SDS011;46836;48.388;16.210;2023-08-01T10:06:59;5.63;;;4.73;;
45684;SDS011;46836;48.388;16.210;2023-08-01T10:09:32;4.47;;;4.07;;
45684;SDS011;46836;48.388;16.210;2023-08-01T10:12:02;7.37;;;5.30;;
45684;SDS011;46836;48.388;16.210;2023-08-01T10:14:31;5.60;;;5.10;;
45684;SDS011;46836;48.388;16.210;2023-08-01T10:16:59;5.60;;;5.10;;
45684;SDS011;46836;48.388;16.210;2023-08-01T10:19:29;7.03;;;5.40;;
45684;SDS011;46836;48.388;16.210;2023-08-01T10:22:02;6.40;;;5.13;;
45684;SDS011;46836;48.388;16.210;2023-08-01T10:24:30;6.20;;;5.40;;
45684;SDS011;46836;48.388;16.210;2023-08-01T10:27:12;6.53;;;5.57;;
45684;SDS011;46836;48.388;16.210;2023-08-01T10:29:41;6.47;;;5.80;;
45684;SDS011;46836;48.388;16.210;2023-08-01T10:32:09;7.50;;;5.80;;
45684;SDS011;46836;48.388;16.210;2023-08-01T10:34:37;6.03;;;5.50;;
45684;SDS011;46836;48.388;16.210;2023-08-01T10:37:04;8.30;;;5.70;;
45684;SDS011;46836;48.388;16.210;2023-08-01T10:39:31;7.07;;;5.40;;
45684;SDS011;46836;48.388;16.210;2023-08-01T10:42:02;7.13;;;5.57;;
45684;SDS011;46836;48.388;16.210;2023-08-01T10:44:32;9.80;;;6.10;;
45684;SDS011;46836;48.388;16.210;2023-08-01T10:47:01;7.00;;;6.13;;
45684;SDS011;46836;48.388;16.210;2023-08-01T10:49:34;6.00;;;5.40;;
45684;SDS011;46836;48.388;16.210;2023-08-01T10:52:16;6.40;;;5.40;;
45684;SDS011;46836;48.388;16.210;2023-08-01T10:54:44;5.93;;;5.33;;
45684;SDS011;46836;48.388;16.210;2023-08-01T10:57:16;6.53;;;4.93;;
45684;SDS011;46836;48.388;16.210;2023-08-01T10:59:45;7.40;;;5.80;;
45684;SDS011;46836;48.388;16.210;2023-08-01T11:02:19;9.00;;;5.60;;
45684;SDS011;46836;48.388;16.210;2023-08-01T11:07:27;7.33;;;5.60;;
45684;SDS011;46836;48.388;16.210;2023-08-01T11:12:42;7.50;;;5.40;;
45684;SDS011;46836;48.388;16.210;2023-08-01T11:15:11;5.93;;;5.30;;
45684;SDS011;46836;48.388;16.210;2023-08-01T11:17:40;13.30;;;6.13;;
45684;SDS011;46836;48.388;16.210;2023-08-01T11:20:15;6.90;;;6.17;;
45684;SDS011;46836;48.388;16.210;2023-08-01T11:23:04;5.93;;;5.20;;
45684;SDS011;46836;48.388;16.210;2023-08-01T11:25:49;6.00;;;5.47;;
45684;SDS011;46836;48.388;16.210;2023-08-01T11:28:17;7.53;;;5.50;;
45684;SDS011;46836;48.388;16.210;2023-08-01T11:30:44;6.00;;;5.13;;
45684;SDS011;46836;48.388;16.210;2023-08-01T11:33:19;5.03;;;4.53;;
45684;SDS011;46836;48.388;16.210;2023-08-01T11:35:51;6.00;;;4.97;;
45684;SDS011;46836;48.388;16.210;2023-08-01T11:38:24;6.63;;;5.33;;
45684;SDS011;46836;48.388;16.210;2023-08-01T11:40:53;5.87;;;4.97;;
45684;SDS011;46836;48.388;16.210;2023-08-01T11:43:20;9.83;;;5.10;;
45684;SDS011;46836;48.388;16.210;2023-08-01T11:45:48;6.23;;;5.63;;
45684;SDS011;46836;48.388;16.210;2023-08-01T11:48:16;6.13;;;5.20;;
45684;SDS011;46836;48.388;16.210;2023-08-01T11:50:45;5.83;;;5.23;;
45684;SDS011;46836;48.388;16.210;2023-08-01T11:53:21;11.37;;;5.50;;
45684;SDS011;46836;48.388;16.210;2023-08-01T11:55:50;8.00;;;4.97;;
45684;SDS011;46836;48.388;16.210;2023-08-01T11:58:33;5.60;;;4.80;;
45684;SDS011;46836;48.388;16.210;2023-08-01T12:01:11;8.27;;;5.40;;
45684;SDS011;46836;48.388;16.210;2023-08-01T12:03:42;8.27;;;5.33;;
45684;SDS011;46836;48.388;16.210;2023-08-01T12:06:15;6.73;;;5.07;;
45684;SDS011;46836;48.388;16.210;2023-08-01T12:08:43;6.07;;;4.83;;
45684;SDS011;46836;48.388;16.210;2023-08-01T12:14:08;6.93;;;4.30;;
45684;SDS011;46836;48.388;16.210;2023-08-01T12:16:41;7.17;;;4.43;;
45684;SDS011;46836;48.388;16.210;2023-08-01T12:19:16;5.00;;;4.50;;
45684;SDS011;46836;48.388;16.210;2023-08-01T12:21:44;6.30;;;4.77;;
45684;SDS011;46836;48.388;16.210;2023-08-01T12:24:11;6.63;;;5.40;;
45684;SDS011;46836;48.388;16.210;2023-08-01T12:26:38;8.00;;;4.73;;
45684;SDS011;46836;48.388;16.210;2023-08-01T12:29:06;7.90;;;5.80;;
45684;SDS011;46836;48.388;16.210;2023-08-01T12:31:34;7.33;;;4.80;;
45684;SDS011;46836;48.388;16.210;2023-08-01T12:34:01;5.67;;;5.10;;
45684;SDS011;46836;48.388;16.210;2023-08-01T12:36:29;8.67;;;5.27;;
45684;SDS011;46836;48.388;16.210;2023-08-01T12:38:56;8.30;;;5.83;;
45684;SDS011;46836;48.388;16.210;2023-08-01T12:41:23;8.10;;;5.00;;
45684;SDS011;46836;48.388;16.210;2023-08-01T12:43:50;6.00;;;5.10;;
45684;SDS011;46836;48.388;16.210;2023-08-01T12:46:17;6.73;;;5.67;;
45684;SDS011;46836;48.388;16.210;2023-08-01T12:48:45;6.00;;;5.37;;
45684;SDS011;46836;48.388;16.210;2023-08-01T12:51:13;9.47;;;5.97;;
45684;SDS011;46836;48.388;16.210;2023-08-01T12:53:41;7.30;;;5.20;;
45684;SDS011;46836;48.388;16.210;2023-08-01T12:56:09;6.97;;;5.57;;
45684;SDS011;46836;48.388;16.210;2023-08-01T12:58:36;5.80;;;5.00;;
45684;SDS011;46836;48.388;16.210;2023-08-01T13:01:05;5.93;;;4.97;;
45684;SDS011;46836;48.388;16.210;2023-08-01T13:03:35;9.10;;;5.37;;
45684;SDS011;46836;48.388;16.210;2023-08-01T13:06:02;8.20;;;5.83;;
45684;SDS011;46836;48.388;16.210;2023-08-01T13:08:30;9.50;;;6.67;;
45684;SDS011;46836;48.388;16.210;2023-08-01T13:10:57;6.63;;;5.30;;
45684;SDS011;46836;48.388;16.210;2023-08-01T13:13:29;7.57;;;5.60;;
45684;SDS011;46836;48.388;16.210;2023-08-01T13:15:56;8.00;;;6.00;;
45684;SDS011;46836;48.388;16.210;2023-08-01T13:18:24;7.07;;;5.50;;
45684;SDS011;46836;48.388;16.210;2023-08-01T13:20:51;8.03;;;5.60;;
45684;SDS011;46836;48.388;16.210;2023-08-01T13:23:18;8.23;;;5.13;;
45684;SDS011;46836;48.388;16.210;2023-08-01T13:25:45;5.83;;;5.23;;
45684;SDS011;46836;48.388;16.210;2023-08-01T13:28:14;7.20;;;4.70;;
45684;SDS011;46836;48.388;16.210;2023-08-01T13:30:41;6.03;;;4.70;;
45684;SDS011;46836;48.388;16.210;2023-08-01T13:33:08;6.47;;;5.67;;
45684;SDS011;46836;48.388;16.210;2023-08-01T13:35:35;8.13;;;5.50;;
45684;SDS011;46836;48.388;16.210;2023-08-01T13:38:02;6.03;;;5.30;;
45684;SDS011;46836;48.388;16.210;2023-08-01T13:40:31;5.57;;;5.07;;
45684;SDS011;46836;48.388;16.210;2023-08-01T13:42:58;10.70;;;5.50;;
45684;SDS011;46836;48.388;16.210;2023-08-01T13:45:25;6.73;;;4.93;;
45684;SDS011;46836;48.388;16.210;2023-08-01T13:47:54;5.33;;;4.57;;
45684;SDS011;46836;48.388;16.210;2023-08-01T13:50:21;7.07;;;4.97;;
45684;SDS011;46836;48.388;16.210;2023-08-01T13:52:48;5.63;;;4.70;;
45684;SDS011;46836;48.388;16.210;2023-08-01T13:55:15;7.13;;;4.83;;
45684;SDS011;46836;48.388;16.210;2023-08-01T13:57:43;6.27;;;4.90;;
45684;SDS011;46836;48.388;16.210;2023-08-01T14:00:11;7.07;;;5.13;;
45684;SDS011;46836;48.388;16.210;2023-08-01T14:02:39;7.40;;;5.40;;
45684;SDS011;46836;48.388;16.210;2023-08-01T14:05:07;6.03;;;4.90;;
45684;SDS011;46836;48.388;16.210;2023-08-01T14:07:35;6.60;;;5.20;;
45684;SDS011;46836;48.388;16.210;2023-08-01T14:10:08;7.00;;;5.30;;
45684;SDS011;46836;48.388;16.210;2023-08-01T14:12:36;10.60;;;6.50;;
45684;SDS011;46836;48.388;16.210;2023-08-01T14:15:03;6.27;;;5.40;;
45684;SDS011;46836;48.388;16.210;2023-08-01T14:17:31;6.60;;;5.00;;
45684;SDS011;46836;48.388;16.210;2023-08-01T14:19:58;6.83;;;5.90;;
45684;SDS011;46836;48.388;16.210;2023-08-01T14:22:25;8.23;;;4.90;;
45684;SDS011;46836;48.388;16.210;2023-08-01T14:24:53;6.30;;;4.90;;
45684;SDS011;46836;48.388;16.210;2023-08-01T14:27:20;6.40;;;4.43;;
45684;SDS011;46836;48.388;16.210;2023-08-01T14:29:47;5.40;;;4.70;;
45684;SDS011;46836;48.388;16.210;2023-08-01T14:32:18;4.80;;;4.30;;
45684;SDS011;46836;48.388;16.210;2023-08-01T14:34:46;6.20;;;5.10;;
45684;SDS011;46836;48.388;16.210;2023-08-01T14:37:13;5.20;;;4.70;;
45684;SDS011;46836;48.388;16.210;2023-08-01T14:39:40;4.70;;;4.27;;
45684;SDS011;46836;48.388;16.210;2023-08-01T14:42:08;6.80;;;4.90;;
45684;SDS011;46836;48.388;16.210;2023-08-01T14:44:35;7.93;;;4.50;;
45684;SDS011;46836;48.388;16.210;2023-08-01T14:47:02;5.60;;;5.00;;